createdAt,value
2023-05-12T00:00:12.299Z,4346.00
2023-05-12T00:01:12.313Z,4434.00
2023-05-12T00:02:12.368Z,4395.00
2023-05-12T00:03:12.704Z,4359.00
2023-05-12T00:04:12.651Z,4376.00
2023-05-12T00:05:12.531Z,4425.00
2023-05-12T00:06:12.661Z,4519.00
2023-05-12T00:07:12.654Z,4410.00
2023-05-12T00:08:12.707Z,4334.00
2023-05-12T00:09:12.781Z,4452.00
2023-05-12T00:10:12.827Z,4555.00
2023-05-12T00:11:12.847Z,4676.00
2023-05-12T00:12:12.937Z,4591.00
2023-05-12T00:13:12.959Z,4586.00
2023-05-12T00:14:13.039Z,4653.00
2023-05-12T00:15:13.077Z,4787.00
2023-05-12T00:16:13.150Z,4726.00
2023-05-12T00:17:13.190Z,4595.00
2023-05-12T00:18:13.253Z,4558.00
2023-05-12T00:19:13.283Z,4571.00
2023-05-12T00:20:13.360Z,4592.00
2023-05-12T00:21:13.428Z,4634.00
2023-05-12T00:22:13.474Z,4406.00
2023-05-12T00:23:13.600Z,4344.00
2023-05-12T00:24:13.653Z,4330.00
2023-05-12T00:25:13.687Z,4315.00
2023-05-12T00:26:13.736Z,4374.00
2023-05-12T00:27:13.761Z,4420.00
2023-05-12T00:28:13.849Z,4520.00
2023-05-12T00:29:13.954Z,4483.00
2023-05-12T00:30:13.937Z,4473.00
2023-05-12T00:31:13.987Z,4310.00
2023-05-12T00:32:13.970Z,4286.00
2023-05-12T00:33:13.976Z,4232.00
2023-05-12T00:34:14.324Z,4267.00
2023-05-12T00:35:14.079Z,4333.00
2023-05-12T00:36:14.078Z,4267.00
2023-05-12T00:37:14.142Z,4326.00
2023-05-12T00:38:14.230Z,4325.00
2023-05-12T00:39:14.324Z,4261.00
2023-05-12T00:40:14.275Z,4288.00
2023-05-12T00:41:14.312Z,4268.00
2023-05-12T00:42:14.381Z,4137.00
2023-05-12T00:43:14.438Z,4052.00
2023-05-12T00:44:14.509Z,4080.00
2023-05-12T00:45:14.555Z,4109.00
2023-05-12T00:46:14.583Z,4174.00
2023-05-12T00:47:14.620Z,4188.00
2023-05-12T00:48:14.673Z,4246.00
2023-05-12T00:49:14.788Z,4204.00
2023-05-12T00:50:14.822Z,4172.00
2023-05-12T00:51:14.846Z,4159.00
2023-05-12T00:52:14.928Z,4140.00
2023-05-12T00:53:14.937Z,4078.00
2023-05-12T00:54:15.029Z,4040.00
2023-05-12T00:55:15.069Z,3930.00
2023-05-12T00:56:15.069Z,3847.00
2023-05-12T00:57:15.100Z,3855.00
2023-05-12T00:58:15.162Z,3873.00
2023-05-12T00:59:15.297Z,3775.00
2023-05-12T01:00:15.247Z,3681.00
2023-05-12T01:01:15.255Z,3595.00
2023-05-12T01:02:15.251Z,3527.00
2023-05-12T01:03:15.452Z,3571.00
2023-05-12T01:04:15.410Z,3523.00
2023-05-12T01:05:15.424Z,3492.00
2023-05-12T01:06:15.457Z,3545.00
2023-05-12T01:07:15.546Z,3692.00
2023-05-12T01:08:15.623Z,3790.00
2023-05-12T01:09:15.638Z,3623.00
2023-05-12T01:10:15.759Z,3481.00
2023-05-12T01:11:15.745Z,3500.00
2023-05-12T01:12:15.850Z,3441.00
2023-05-12T01:13:15.905Z,3361.00
2023-05-12T01:14:16.041Z,3288.00
2023-05-12T01:15:16.035Z,3356.00
2023-05-12T01:16:16.044Z,3415.00
2023-05-12T01:17:16.132Z,3418.00
2023-05-12T01:18:16.177Z,3587.00
2023-05-12T01:19:16.319Z,3518.00
2023-05-12T01:20:16.274Z,3317.00
2023-05-12T01:21:16.274Z,3197.00
2023-05-12T01:22:16.287Z,3195.00
2023-05-12T01:23:16.286Z,3252.00
2023-05-12T01:24:16.360Z,3246.00
2023-05-12T01:25:16.364Z,3236.00
2023-05-12T01:26:16.457Z,3270.00
2023-05-12T01:27:16.460Z,3152.00
2023-05-12T01:28:16.524Z,2957.00
2023-05-12T01:29:16.594Z,2947.00
2023-05-12T01:30:16.640Z,3052.00
2023-05-12T01:31:18.322Z,3083.00
2023-05-12T01:32:16.673Z,2811.00
2023-05-12T01:33:16.649Z,2692.00
2023-05-12T01:34:16.699Z,2824.00
2023-05-12T01:35:16.683Z,2935.00
2023-05-12T01:36:16.667Z,2907.00
2023-05-12T01:37:16.673Z,2935.00
2023-05-12T01:38:16.630Z,2854.00
2023-05-12T01:39:16.692Z,2822.00
2023-05-12T01:40:16.600Z,2789.00
2023-05-12T01:41:16.625Z,2916.00
2023-05-12T01:42:16.644Z,2952.00
2023-05-12T01:43:16.624Z,2969.00
2023-05-12T01:44:16.642Z,3091.00
2023-05-12T01:45:16.577Z,3179.00
2023-05-12T01:46:16.628Z,3133.00
2023-05-12T01:47:16.576Z,3125.00
2023-05-12T01:48:16.605Z,3218.00
2023-05-12T01:49:16.554Z,3241.00
2023-05-12T01:50:16.578Z,3352.00
2023-05-12T01:51:16.560Z,3275.00
2023-05-12T01:52:16.574Z,3329.00
2023-05-12T01:53:16.534Z,3264.00
2023-05-12T01:54:16.531Z,3274.00
2023-05-12T01:55:16.659Z,3063.00
2023-05-12T01:56:16.526Z,2996.00
2023-05-12T01:57:16.515Z,3047.00
2023-05-12T01:58:16.925Z,3104.00
2023-05-12T01:59:16.559Z,3150.00
2023-05-12T02:00:16.479Z,3119.00
2023-05-12T02:01:16.597Z,3066.00
2023-05-12T02:02:16.570Z,3150.00
2023-05-12T02:03:16.615Z,3196.00
2023-05-12T02:04:16.582Z,3202.00
2023-05-12T02:05:16.457Z,3166.00
2023-05-12T02:06:16.471Z,3193.00
2023-05-12T02:07:16.445Z,3113.00
2023-05-12T02:08:16.536Z,3100.00
2023-05-12T02:09:16.543Z,3158.00
2023-05-12T02:10:16.723Z,3316.00
2023-05-12T02:11:16.606Z,3217.00
2023-05-12T02:12:16.719Z,3163.00
2023-05-12T02:13:16.782Z,3167.00
2023-05-12T02:14:16.830Z,3233.00
2023-05-12T02:15:16.844Z,3334.00
2023-05-12T02:16:16.927Z,3167.00
2023-05-12T02:17:16.953Z,3080.00
2023-05-12T02:18:16.959Z,3169.00
2023-05-12T02:19:17.024Z,3225.00
2023-05-12T02:20:17.142Z,3263.00
2023-05-12T02:21:17.091Z,3193.00
2023-05-12T02:22:17.197Z,3077.00
2023-05-12T02:23:17.268Z,3033.00
2023-05-12T02:24:17.280Z,3123.00
2023-05-12T02:25:17.289Z,3146.00
2023-05-12T02:26:17.326Z,3111.00
2023-05-12T02:27:17.299Z,3223.00
2023-05-12T02:28:17.304Z,3255.00
2023-05-12T02:29:17.306Z,3163.00
2023-05-12T02:30:17.341Z,3121.00
2023-05-12T02:31:17.348Z,3088.00
2023-05-12T02:32:17.364Z,3105.00
2023-05-12T02:33:17.384Z,2894.00
2023-05-12T02:34:17.375Z,2885.00
2023-05-12T02:35:17.428Z,2953.00
2023-05-12T02:36:17.513Z,3058.00
2023-05-12T02:37:17.545Z,3206.00
2023-05-12T02:38:17.618Z,3134.00
2023-05-12T02:39:17.659Z,3062.00
2023-05-12T02:40:17.894Z,3110.00
2023-05-12T02:41:17.786Z,3029.00
2023-05-12T02:42:17.842Z,2915.00
2023-05-12T02:43:17.953Z,2945.00
2023-05-12T02:44:17.991Z,2848.00
2023-05-12T02:45:17.972Z,2789.00
2023-05-12T02:46:18.057Z,2664.00
2023-05-12T02:47:18.033Z,2742.00
2023-05-12T02:48:18.112Z,2763.00
2023-05-12T02:49:18.115Z,2928.00
2023-05-12T02:50:18.285Z,2946.00
2023-05-12T02:51:18.220Z,2954.00
2023-05-12T02:52:18.257Z,3001.00
2023-05-12T02:53:18.292Z,2931.00
2023-05-12T02:54:18.360Z,3022.00
2023-05-12T02:55:18.443Z,2925.00
2023-05-12T02:56:18.444Z,2842.00
2023-05-12T02:57:18.464Z,2764.00
2023-05-12T02:58:18.473Z,2709.00
2023-05-12T02:59:18.528Z,2736.00
2023-05-12T03:00:18.648Z,2676.00
2023-05-12T03:01:18.580Z,2769.00
2023-05-12T03:02:18.649Z,2835.00
2023-05-12T03:03:18.736Z,2930.00
2023-05-12T03:04:18.750Z,3028.00
2023-05-12T03:05:18.797Z,3077.00
2023-05-12T03:06:18.876Z,3094.00
2023-05-12T03:07:18.938Z,3128.00
2023-05-12T03:08:18.995Z,3119.00
2023-05-12T03:09:19.079Z,3166.00
2023-05-12T03:10:19.524Z,3158.00
2023-05-12T03:11:19.155Z,3048.00
2023-05-12T03:12:19.221Z,3022.00
2023-05-12T03:13:19.247Z,3096.00
2023-05-12T03:14:19.268Z,3084.00
2023-05-12T03:15:19.240Z,3153.00
2023-05-12T03:16:19.817Z,3201.00
2023-05-12T03:17:19.389Z,3321.00
2023-05-12T03:18:19.258Z,3279.00
2023-05-12T03:19:19.279Z,3309.00
2023-05-12T03:20:19.824Z,3416.00
2023-05-12T03:21:19.399Z,3416.00
2023-05-12T03:22:19.503Z,3456.00
2023-05-12T03:23:19.539Z,3457.00
2023-05-12T03:24:19.615Z,3451.00
2023-05-12T03:25:19.612Z,3498.00
2023-05-12T03:26:19.668Z,3516.00
2023-05-12T03:27:19.697Z,3463.00
2023-05-12T03:28:19.739Z,3378.00
2023-05-12T03:29:19.823Z,3388.00
2023-05-12T03:30:19.938Z,3499.00
2023-05-12T03:31:19.861Z,3573.00
2023-05-12T03:32:19.915Z,3562.00
2023-05-12T03:33:19.968Z,3532.00
2023-05-12T03:34:20.042Z,3547.00
2023-05-12T03:35:20.116Z,3423.00
2023-05-12T03:36:20.150Z,3375.00
2023-05-12T03:37:20.154Z,3284.00
2023-05-12T03:38:20.179Z,3341.00
2023-05-12T03:39:20.232Z,3391.00
2023-05-12T03:40:20.600Z,3412.00
2023-05-12T03:41:20.325Z,3457.00
2023-05-12T03:42:20.413Z,3469.00
2023-05-12T03:43:20.467Z,3428.00
2023-05-12T03:44:20.619Z,3356.00
2023-05-12T03:45:20.582Z,3290.00
2023-05-12T03:46:20.730Z,3327.00
2023-05-12T03:47:20.781Z,3402.00
2023-05-12T03:48:21.298Z,3428.00
2023-05-12T03:49:20.796Z,3327.00
2023-05-12T03:50:20.920Z,3311.00
2023-05-12T03:51:20.887Z,3334.00
2023-05-12T03:52:20.958Z,3371.00
2023-05-12T03:53:21.033Z,3303.00
2023-05-12T03:54:21.096Z,3422.00
2023-05-12T03:55:21.153Z,3571.00
2023-05-12T03:56:21.200Z,3661.00
2023-05-12T03:57:21.208Z,3701.00
2023-05-12T03:58:21.217Z,3741.00
2023-05-12T03:59:21.280Z,3676.00
2023-05-12T04:00:21.378Z,3550.00
2023-05-12T04:01:21.296Z,3436.00
2023-05-12T04:02:21.427Z,3409.00
2023-05-12T04:03:21.412Z,3468.00
2023-05-12T04:04:21.434Z,3560.00
2023-05-12T04:05:21.474Z,3656.00
2023-05-12T04:06:21.479Z,3634.00
2023-05-12T04:07:21.491Z,3700.00
2023-05-12T04:08:21.488Z,3720.00
2023-05-12T04:09:21.494Z,3717.00
2023-05-12T04:10:21.659Z,3780.00
2023-05-12T04:11:21.502Z,3830.00
2023-05-12T04:12:21.523Z,3925.00
2023-05-12T04:13:21.582Z,3912.00
2023-05-12T04:14:28.956Z,3913.00
2023-05-12T04:15:22.634Z,3916.00
2023-05-12T04:16:21.575Z,3927.00
2023-05-12T04:17:21.572Z,3932.00
2023-05-12T04:18:21.578Z,3946.00
2023-05-12T04:19:21.561Z,3994.00
2023-05-12T04:20:21.675Z,4123.00
2023-05-12T04:21:21.528Z,4233.00
2023-05-12T04:22:22.888Z,4257.00
2023-05-12T04:23:21.528Z,4126.00
2023-05-12T04:24:21.494Z,4116.00
2023-05-12T04:25:21.504Z,4116.00
2023-05-12T04:26:21.467Z,4172.00
2023-05-12T04:27:21.469Z,4221.00
2023-05-12T04:28:21.498Z,3981.00
2023-05-12T04:29:21.493Z,3956.00
2023-05-12T04:30:21.660Z,3946.00
2023-05-12T04:31:21.572Z,3975.00
2023-05-12T04:32:21.471Z,3499.00
2023-05-12T04:33:21.464Z,3470.00
2023-05-12T04:34:21.484Z,3470.00
2023-05-12T04:35:21.504Z,3457.00
2023-05-12T04:36:21.453Z,3556.00
2023-05-12T04:37:21.418Z,3623.00
2023-05-12T04:38:21.400Z,3685.00
2023-05-12T04:39:21.466Z,3582.00
2023-05-12T04:40:21.592Z,3532.00
2023-05-12T04:41:21.404Z,3628.00
2023-05-12T04:42:21.404Z,3719.00
2023-05-12T04:44:21.414Z,3725.00
2023-05-12T04:45:21.582Z,3709.00
2023-05-12T04:46:21.402Z,3502.00
2023-05-12T04:47:21.368Z,3528.00
2023-05-12T04:48:21.370Z,3472.00
2023-05-12T04:49:21.369Z,3519.00
2023-05-12T04:50:21.357Z,3462.00
2023-05-12T04:51:21.335Z,3509.00
2023-05-12T04:52:21.294Z,3569.00
2023-05-12T04:53:21.329Z,3293.00
2023-05-12T04:54:21.303Z,3265.00
2023-05-12T04:55:21.658Z,3357.00
2023-05-12T04:56:21.267Z,3085.00
2023-05-12T04:57:21.288Z,3073.00
2023-05-12T04:58:21.271Z,3184.00
2023-05-12T04:59:21.286Z,3310.00
2023-05-12T05:01:48.715Z,500.00
2023-05-12T05:02:41.089Z,500.00
2023-05-12T05:03:41.155Z,500.00
2023-05-12T05:04:41.014Z,500.00
2023-05-12T05:05:41.007Z,500.00
2023-05-12T05:06:40.966Z,500.00
2023-05-12T05:07:40.998Z,512.00
2023-05-12T05:08:41.030Z,500.00
2023-05-12T05:09:41.012Z,536.00
2023-05-12T05:10:40.981Z,520.00
2023-05-12T05:11:40.992Z,517.00
2023-05-12T05:12:40.990Z,532.00
2023-05-12T05:13:40.973Z,490.00
2023-05-12T05:14:40.999Z,491.00
2023-05-12T05:15:40.972Z,497.00
2023-05-12T05:16:40.936Z,498.00
2023-05-12T05:17:40.941Z,481.00
2023-05-12T05:18:40.927Z,492.00
2023-05-12T05:19:55.091Z,500.00
2023-05-12T05:20:45.245Z,500.00
2023-05-12T05:21:40.925Z,501.00
2023-05-12T05:22:40.898Z,506.00
2023-05-12T05:23:40.927Z,529.00
2023-05-12T05:24:40.882Z,577.00
2023-05-12T05:25:40.846Z,680.00
2023-05-12T05:26:40.855Z,662.00
2023-05-12T05:27:40.853Z,590.00
2023-05-12T05:28:40.893Z,548.00
2023-05-12T05:29:40.891Z,497.00
2023-05-12T05:30:40.830Z,529.00
2023-05-12T05:31:40.855Z,568.00
2023-05-12T05:32:41.399Z,648.00
2023-05-12T05:33:40.859Z,661.00
2023-05-12T05:34:40.890Z,635.00
2023-05-12T05:35:40.980Z,603.00
2023-05-12T05:36:40.768Z,598.00
2023-05-12T05:37:40.836Z,647.00
2023-05-12T05:38:40.852Z,632.00
2023-05-12T05:39:40.777Z,667.00
2023-05-12T05:40:52.254Z,567.00
2023-05-12T05:41:41.797Z,495.00
2023-05-12T05:42:40.762Z,513.00
2023-05-12T05:43:40.792Z,481.00
2023-05-12T05:44:40.769Z,409.00
2023-05-12T05:47:08.013Z,500.00
2023-05-12T05:48:00.676Z,500.00
2023-05-12T05:49:00.282Z,500.00
2023-05-12T05:50:00.499Z,500.00
2023-05-12T05:51:00.279Z,500.00
2023-05-12T05:52:01.248Z,500.00
2023-05-12T05:53:00.262Z,544.00
2023-05-12T05:54:00.234Z,572.00
2023-05-12T05:55:00.195Z,401.00
2023-05-12T05:56:00.217Z,400.00
2023-05-12T05:57:00.305Z,400.00
2023-05-12T05:58:00.211Z,400.00
2023-05-12T05:59:00.317Z,428.00
2023-05-12T06:00:00.247Z,553.00
2023-05-12T06:01:00.263Z,618.00
2023-05-12T06:02:00.274Z,565.00
2023-05-12T06:03:00.278Z,563.00
2023-05-12T06:04:00.391Z,538.00
2023-05-12T06:05:00.179Z,486.00
2023-05-12T06:06:00.292Z,495.00
2023-05-12T06:07:00.371Z,501.00
2023-05-12T06:08:00.284Z,519.00
2023-05-12T06:09:00.401Z,548.00
2023-05-12T06:10:00.742Z,583.00
2023-05-12T06:11:00.414Z,542.00
2023-05-12T06:12:00.483Z,533.00
2023-05-12T06:13:00.499Z,557.00
2023-05-12T06:14:00.622Z,542.00
2023-05-12T06:15:00.622Z,616.00
2023-05-12T06:16:00.692Z,711.00
2023-05-12T06:17:00.743Z,835.00
2023-05-12T06:18:00.834Z,666.00
2023-05-12T06:19:00.854Z,736.00
2023-05-12T06:20:00.773Z,950.00
2023-05-12T06:21:01.003Z,1029.00
2023-05-12T06:22:01.242Z,912.00
2023-05-12T06:23:00.898Z,817.00
2023-05-12T06:24:01.134Z,769.00
2023-05-12T06:25:00.859Z,786.00
2023-05-12T06:26:01.079Z,935.00
2023-05-12T06:27:00.929Z,968.00
2023-05-12T06:28:00.918Z,941.00
2023-05-12T06:29:01.004Z,870.00
2023-05-12T06:30:01.001Z,898.00
2023-05-12T06:31:01.100Z,965.00
2023-05-12T06:32:01.117Z,1038.00
2023-05-12T06:33:01.078Z,1003.00
2023-05-12T06:34:01.083Z,965.00
2023-05-12T06:35:01.123Z,897.00
2023-05-12T06:36:01.516Z,738.00
2023-05-12T06:37:01.504Z,708.00
2023-05-12T06:38:01.151Z,839.00
2023-05-12T06:39:01.202Z,897.00
2023-05-12T06:40:01.177Z,680.00
2023-05-12T06:41:01.587Z,764.00
2023-05-12T06:42:01.201Z,875.00
2023-05-12T06:43:01.208Z,868.00
2023-05-12T06:44:01.236Z,909.00
2023-05-12T06:45:01.995Z,889.00
2023-05-12T06:46:01.537Z,763.00
2023-05-12T06:47:01.405Z,907.00
2023-05-12T06:48:01.483Z,723.00
2023-05-12T06:49:01.497Z,513.00
2023-05-12T06:50:01.920Z,493.00
2023-05-12T06:51:02.265Z,500.00
2023-05-12T06:52:02.014Z,548.00
2023-05-12T06:53:01.716Z,956.00
2023-05-12T06:54:01.778Z,1215.00
2023-05-12T06:55:01.878Z,1026.00
2023-05-12T06:56:01.845Z,613.00
2023-05-12T06:57:02.875Z,697.00
2023-05-12T06:58:02.019Z,800.00
2023-05-12T06:59:02.161Z,736.00
2023-05-12T07:00:02.073Z,669.00
2023-05-12T07:01:02.225Z,565.00
2023-05-12T07:02:02.251Z,524.00
2023-05-12T07:03:02.287Z,500.00
2023-05-12T07:04:02.352Z,503.00
2023-05-12T07:05:02.364Z,577.00
2023-05-12T07:06:02.621Z,630.00
2023-05-12T07:07:02.437Z,704.00
2023-05-12T07:08:02.866Z,958.00
2023-05-12T07:09:02.561Z,797.00
2023-05-12T07:10:02.620Z,583.00
2023-05-12T07:11:03.430Z,497.00
2023-05-12T07:12:02.708Z,541.00
2023-05-12T07:13:02.676Z,516.00
2023-05-12T07:14:02.720Z,497.00
2023-05-12T07:15:03.297Z,515.00
2023-05-12T07:16:02.816Z,611.00
2023-05-12T07:17:02.862Z,534.00
2023-05-12T07:18:02.968Z,500.00
2023-05-12T07:19:02.909Z,526.00
2023-05-12T07:20:02.944Z,501.00
2023-05-12T07:21:02.932Z,551.00
2023-05-12T07:22:04.270Z,548.00
2023-05-12T07:23:02.996Z,604.00
2023-05-12T07:24:03.071Z,658.00
2023-05-12T07:25:03.217Z,594.00
2023-05-12T07:26:03.207Z,521.00
2023-05-12T07:27:03.220Z,400.00
2023-05-12T07:28:03.126Z,413.00
2023-05-12T07:29:03.199Z,455.00
2023-05-12T07:30:03.541Z,531.00
2023-05-12T07:31:03.611Z,612.00
2023-05-12T07:32:03.325Z,615.00
2023-05-12T07:33:03.287Z,641.00
2023-05-12T07:34:03.389Z,573.00
2023-05-12T07:35:03.636Z,500.00
2023-05-12T07:36:03.600Z,501.00
2023-05-12T07:37:03.448Z,522.00
2023-05-12T07:38:03.474Z,523.00
2023-05-12T07:39:03.493Z,595.00
2023-05-12T07:40:03.616Z,507.00
2023-05-12T07:41:04.090Z,400.00
2023-05-12T07:42:03.942Z,400.00
2023-05-12T07:43:03.880Z,418.00
2023-05-12T07:44:03.852Z,400.00
2023-05-12T07:45:03.675Z,411.00
2023-05-12T07:46:04.302Z,455.00
2023-05-12T07:47:04.116Z,461.00
2023-05-12T07:48:04.389Z,582.00
2023-05-12T07:49:03.805Z,712.00
2023-05-12T07:50:04.059Z,690.00
2023-05-12T07:51:04.036Z,618.00
2023-05-12T07:52:03.988Z,624.00
2023-05-12T07:53:04.002Z,727.00
2023-05-12T07:54:04.108Z,821.00
2023-05-12T07:55:03.998Z,496.00
2023-05-12T07:56:04.598Z,506.00
2023-05-12T07:57:04.052Z,637.00
2023-05-12T07:58:04.236Z,679.00
2023-05-12T07:59:04.161Z,592.00
2023-05-12T08:00:04.171Z,531.00
2023-05-12T08:01:04.260Z,489.00
2023-05-12T08:02:04.574Z,505.00
2023-05-12T08:03:04.338Z,491.00
2023-05-12T08:04:04.443Z,400.00
2023-05-12T08:05:04.409Z,508.00
2023-05-12T08:06:04.657Z,473.00
2023-05-12T08:07:04.465Z,400.00
2023-05-12T08:08:04.716Z,400.00
2023-05-12T08:09:04.649Z,400.00
2023-05-12T08:10:04.862Z,400.00
2023-05-12T08:11:04.612Z,400.00
2023-05-12T08:12:04.704Z,400.00
2023-05-12T08:13:04.748Z,492.00
2023-05-12T08:14:05.110Z,634.00
2023-05-12T08:15:05.643Z,614.00
2023-05-12T08:16:05.141Z,620.00
2023-05-12T08:17:04.824Z,757.00
2023-05-12T08:18:05.005Z,942.00
2023-05-12T08:19:05.497Z,885.00
2023-05-12T08:20:05.068Z,666.00
2023-05-12T08:21:05.386Z,724.00
2023-05-12T08:22:05.030Z,662.00
2023-05-12T08:23:05.534Z,679.00
2023-05-12T08:24:05.370Z,927.00
2023-05-12T08:25:05.156Z,1047.00
2023-05-12T08:26:05.728Z,1038.00
2023-05-12T08:27:05.144Z,907.00
2023-05-12T08:28:05.138Z,1145.00
2023-05-12T08:29:05.380Z,1249.00
2023-05-12T08:30:05.329Z,1022.00
2023-05-12T08:31:05.983Z,877.00
2023-05-12T08:32:05.357Z,929.00
2023-05-12T08:33:06.723Z,1099.00
2023-05-12T08:35:05.854Z,1192.00
2023-05-12T08:36:05.445Z,1095.00
2023-05-12T08:37:05.628Z,1123.00
2023-05-12T08:38:05.336Z,1137.00
2023-05-12T08:39:05.397Z,898.00
2023-05-12T08:40:05.346Z,777.00
2023-05-12T08:41:05.408Z,652.00
2023-05-12T08:42:05.353Z,758.00
2023-05-12T08:43:05.360Z,886.00
2023-05-12T08:44:05.352Z,1029.00
2023-05-12T08:45:05.292Z,866.00
2023-05-12T08:46:05.379Z,838.00
2023-05-12T08:47:05.552Z,1025.00
2023-05-12T08:48:05.351Z,772.00
2023-05-12T08:49:05.444Z,1037.00
2023-05-12T08:50:05.320Z,1254.00
2023-05-12T08:51:05.419Z,1311.00
2023-05-12T08:52:05.940Z,982.00
2023-05-12T08:53:05.798Z,986.00
2023-05-12T08:54:05.857Z,1238.00
2023-05-12T08:55:05.771Z,1370.00
2023-05-12T08:58:05.261Z,1178.00
2023-05-12T08:59:06.385Z,1105.00
2023-05-12T09:00:05.204Z,1047.00
2023-05-12T09:01:06.310Z,940.00
2023-05-12T09:02:05.346Z,792.00
2023-05-12T09:03:05.296Z,784.00
2023-05-12T09:04:05.263Z,801.00
2023-05-12T09:05:05.182Z,840.00
2023-05-12T09:06:05.334Z,1033.00
2023-05-12T09:07:05.542Z,1436.00
2023-05-12T09:08:05.184Z,1353.00
2023-05-12T09:09:05.901Z,1143.00
2023-05-12T09:10:05.197Z,1053.00
2023-05-12T09:11:05.139Z,1115.00
2023-05-12T09:12:05.531Z,1316.00
2023-05-12T09:13:05.134Z,1481.00
2023-05-12T09:14:05.474Z,1633.00
2023-05-12T09:15:05.386Z,2036.00
2023-05-12T09:16:05.252Z,1767.00
2023-05-12T09:17:05.912Z,1471.00
2023-05-12T09:18:05.088Z,1055.00
2023-05-12T09:19:07.005Z,1114.00
2023-05-12T09:20:05.213Z,1108.00
2023-05-12T09:21:05.325Z,674.00
2023-05-12T09:22:05.662Z,635.00
2023-05-12T09:23:05.093Z,653.00
2023-05-12T09:24:05.155Z,616.00
2023-05-12T09:25:05.270Z,675.00
2023-05-12T09:26:05.309Z,695.00
2023-05-12T09:27:05.597Z,725.00
2023-05-12T09:28:05.270Z,896.00
2023-05-12T09:29:05.846Z,1127.00
2023-05-12T09:30:05.393Z,1275.00
2023-05-12T09:31:05.509Z,1293.00
2023-05-12T09:32:05.580Z,1429.00
2023-05-12T09:33:05.646Z,1600.00
2023-05-12T09:34:05.639Z,1781.00
2023-05-12T09:35:05.549Z,1310.00
2023-05-12T09:36:05.567Z,996.00
2023-05-12T09:37:05.617Z,1058.00
2023-05-12T09:38:05.646Z,1007.00
2023-05-12T09:39:05.710Z,883.00
2023-05-12T09:40:05.719Z,977.00
2023-05-12T09:41:05.996Z,789.00
2023-05-12T09:42:05.835Z,805.00
2023-05-12T09:43:05.800Z,980.00
2023-05-12T09:44:05.881Z,1079.00
2023-05-12T09:45:05.779Z,897.00
2023-05-12T09:46:05.875Z,1054.00
2023-05-12T09:47:06.065Z,1360.00
2023-05-12T09:48:06.011Z,1436.00
2023-05-12T09:49:05.954Z,1780.00
2023-05-12T09:50:05.991Z,1624.00
2023-05-12T09:51:05.970Z,1742.00
2023-05-12T09:52:06.190Z,1873.00
2023-05-12T09:53:06.006Z,1763.00
2023-05-12T09:54:07.828Z,1790.00
2023-05-12T09:55:06.091Z,1497.00
2023-05-12T09:56:06.053Z,1207.00
2023-05-12T09:57:06.590Z,1328.00
2023-05-12T09:58:06.205Z,1114.00
2023-05-12T09:59:06.323Z,1124.00
2023-05-12T10:00:16.569Z,1197.00
2023-05-12T10:02:07.392Z,1073.00
2023-05-12T10:03:06.256Z,888.00
2023-05-12T10:04:06.251Z,1122.00
2023-05-12T10:05:06.394Z,984.00
2023-05-12T10:06:07.832Z,956.00
2023-05-12T10:07:06.511Z,1272.00
2023-05-12T10:08:06.600Z,1343.00
2023-05-12T10:09:06.185Z,1292.00
2023-05-12T10:10:06.202Z,1051.00
2023-05-12T10:11:06.157Z,677.00
2023-05-12T10:12:06.204Z,681.00
2023-05-12T10:13:06.174Z,672.00
2023-05-12T10:14:06.263Z,743.00
2023-05-12T10:15:06.439Z,780.00
2023-05-12T10:16:06.178Z,1005.00
2023-05-12T10:17:06.256Z,1132.00
2023-05-12T10:18:07.023Z,977.00
2023-05-12T10:19:06.602Z,910.00
2023-05-12T10:20:06.987Z,620.00
2023-05-12T10:21:06.268Z,688.00
2023-05-12T10:22:06.231Z,863.00
2023-05-12T10:23:06.575Z,875.00
2023-05-12T10:24:06.238Z,812.00
2023-05-12T10:25:06.366Z,660.00
2023-05-12T10:26:06.372Z,550.00
2023-05-12T10:27:06.439Z,566.00
2023-05-12T10:28:06.561Z,634.00
2023-05-12T10:29:06.425Z,697.00
2023-05-12T10:30:06.543Z,729.00
2023-05-12T10:31:06.685Z,624.00
2023-05-12T10:32:06.715Z,650.00
2023-05-12T10:33:07.152Z,672.00
2023-05-12T10:34:06.689Z,776.00
2023-05-12T10:35:06.616Z,843.00
2023-05-12T10:36:07.260Z,673.00
2023-05-12T10:37:06.662Z,654.00
2023-05-12T10:38:07.066Z,808.00
2023-05-12T10:39:06.725Z,647.00
2023-05-12T10:40:07.821Z,649.00
2023-05-12T10:41:06.849Z,859.00
2023-05-12T10:42:06.928Z,1000.00
2023-05-12T10:43:06.908Z,887.00
2023-05-12T10:44:06.883Z,888.00
2023-05-12T10:45:06.993Z,797.00
2023-05-12T10:46:07.041Z,711.00
2023-05-12T10:47:07.501Z,1091.00
2023-05-12T10:48:07.074Z,1216.00
2023-05-12T10:49:07.100Z,1228.00
2023-05-12T10:50:07.093Z,1187.00
2023-05-12T10:51:07.094Z,931.00
2023-05-12T10:52:07.200Z,646.00
2023-05-12T10:53:08.734Z,627.00
2023-05-12T10:54:07.168Z,606.00
2023-05-12T10:55:07.182Z,522.00
2023-05-12T10:56:07.583Z,561.00
2023-05-12T10:57:07.348Z,596.00
2023-05-12T10:58:07.563Z,529.00
2023-05-12T10:59:07.609Z,450.00
2023-05-12T11:00:07.708Z,474.00
2023-05-12T11:01:08.147Z,465.00
2023-05-12T11:02:08.180Z,510.00
2023-05-12T11:03:10.469Z,502.00
2023-05-12T11:04:07.220Z,502.00
2023-05-12T11:05:07.327Z,509.00
2023-05-12T11:06:07.367Z,512.00
2023-05-12T11:07:08.075Z,554.00
2023-05-12T11:08:07.473Z,547.00
2023-05-12T11:09:07.302Z,491.00
2023-05-12T11:10:08.041Z,444.00
2023-05-12T11:11:07.184Z,474.00
2023-05-12T11:12:07.123Z,479.00
2023-05-12T11:13:07.141Z,400.00
2023-05-12T11:14:07.206Z,400.00
2023-05-12T11:15:07.302Z,435.00
2023-05-12T11:16:07.041Z,537.00
2023-05-12T11:17:07.044Z,533.00
2023-05-12T11:18:07.044Z,604.00
2023-05-12T11:19:07.193Z,599.00
2023-05-12T11:20:07.021Z,780.00
2023-05-12T11:21:07.462Z,605.00
2023-05-12T11:22:06.981Z,561.00
2023-05-12T11:23:07.218Z,505.00
2023-05-12T11:24:07.023Z,513.00
2023-05-12T11:25:07.020Z,579.00
2023-05-12T11:26:06.953Z,670.00
2023-05-12T11:27:06.983Z,796.00
2023-05-12T11:28:06.987Z,1023.00
2023-05-12T11:29:07.127Z,1049.00
2023-05-12T11:30:07.029Z,1166.00
2023-05-12T11:31:08.229Z,1038.00
2023-05-12T11:32:07.353Z,756.00
2023-05-12T11:33:09.013Z,779.00
2023-05-12T11:34:11.892Z,914.00
2023-05-12T11:35:08.126Z,650.00
2023-05-12T11:36:08.362Z,640.00
2023-05-12T11:37:07.597Z,774.00
2023-05-12T11:38:07.628Z,739.00
2023-05-12T11:39:07.614Z,553.00
2023-05-12T11:40:07.067Z,627.00
2023-05-12T11:41:07.527Z,1040.00
2023-05-12T11:42:13.008Z,1442.00
2023-05-12T11:43:08.149Z,1338.00
2023-05-12T11:44:07.232Z,1216.00
2023-05-12T11:45:07.014Z,1107.00
2023-05-12T11:46:07.091Z,1098.00
2023-05-12T11:47:07.012Z,962.00
2023-05-12T11:48:07.140Z,618.00
2023-05-12T11:49:07.139Z,430.00
2023-05-12T11:50:07.963Z,513.00
2023-05-12T11:51:07.280Z,566.00
2023-05-12T11:52:07.020Z,632.00
2023-05-12T11:53:06.949Z,908.00
2023-05-12T11:54:06.987Z,1176.00
2023-05-12T11:55:07.044Z,715.00
2023-05-12T11:56:06.979Z,659.00
2023-05-12T11:57:06.982Z,576.00
2023-05-12T11:58:06.943Z,842.00
2023-05-12T11:59:06.987Z,804.00
2023-05-12T12:00:07.004Z,1063.00
2023-05-12T12:01:07.031Z,1287.00
2023-05-12T12:02:07.091Z,708.00
2023-05-12T12:03:07.269Z,661.00
2023-05-12T12:04:07.355Z,694.00
2023-05-12T12:05:09.207Z,500.00
2023-05-12T12:06:07.165Z,623.00
2023-05-12T12:07:07.159Z,576.00
2023-05-12T12:08:07.195Z,508.00
2023-05-12T12:09:07.201Z,614.00
2023-05-12T12:10:07.201Z,621.00
2023-05-12T12:11:07.283Z,621.00
2023-05-12T12:12:07.322Z,555.00
2023-05-12T12:13:07.399Z,531.00
2023-05-12T12:14:07.435Z,404.00
2023-05-12T12:15:07.426Z,547.00
2023-05-12T12:16:07.468Z,510.00
2023-05-12T12:17:07.480Z,500.00
2023-05-12T12:18:07.563Z,565.00
2023-05-12T12:19:07.596Z,513.00
2023-05-12T12:20:07.539Z,510.00
2023-05-12T12:21:07.596Z,537.00
2023-05-12T12:22:07.666Z,579.00
2023-05-12T12:23:07.621Z,774.00
2023-05-12T12:24:07.670Z,964.00